createdAt,value
2023-05-15T00:00:16.339Z,4.22
2023-05-15T00:02:44.681Z,3.53
2023-05-15T00:05:13.085Z,4.47
2023-05-15T00:07:40.719Z,3.38
2023-05-15T00:10:08.741Z,4.25
2023-05-15T00:12:36.722Z,4.10
2023-05-15T00:15:04.168Z,5.20
2023-05-15T00:17:31.272Z,4.30
2023-05-15T00:19:59.821Z,4.18
2023-05-15T00:22:27.063Z,3.95
2023-05-15T00:24:54.123Z,3.60
2023-05-15T00:27:21.394Z,4.07
2023-05-15T00:29:48.550Z,3.50
2023-05-15T00:32:15.701Z,3.38
2023-05-15T00:34:42.830Z,3.40
2023-05-15T00:37:09.969Z,3.10
2023-05-15T00:39:37.046Z,2.67
2023-05-15T00:42:05.537Z,2.78
2023-05-15T00:44:33.871Z,3.15
2023-05-15T00:47:03.395Z,2.47
2023-05-15T00:49:32.824Z,2.60
2023-05-15T00:52:02.110Z,2.50
2023-05-15T00:54:29.437Z,2.35
2023-05-15T00:56:58.079Z,3.00
2023-05-15T00:59:26.444Z,3.17
2023-05-15T01:01:53.753Z,3.50
2023-05-15T01:04:21.389Z,3.13
2023-05-15T01:06:49.005Z,3.08
2023-05-15T01:09:16.327Z,2.70
2023-05-15T01:11:44.877Z,2.92
2023-05-15T01:14:11.955Z,3.15
2023-05-15T01:16:39.166Z,3.43
2023-05-15T01:19:06.531Z,3.22
2023-05-15T01:21:44.575Z,3.03
2023-05-15T01:24:18.586Z,3.17
2023-05-15T01:27:11.117Z,2.97
2023-05-15T01:29:45.008Z,3.17
2023-05-15T01:32:19.817Z,2.58
2023-05-15T01:35:10.086Z,2.55
2023-05-15T01:37:41.691Z,2.42
2023-05-15T01:40:10.777Z,2.33
2023-05-15T01:42:42.289Z,2.17
2023-05-15T01:45:11.528Z,3.05
2023-05-15T01:47:41.982Z,2.25
2023-05-15T01:50:11.742Z,2.65
2023-05-15T01:52:41.986Z,3.00
2023-05-15T01:55:09.701Z,2.57
2023-05-15T01:57:37.491Z,2.67
2023-05-15T02:00:05.324Z,2.10
2023-05-15T02:02:32.728Z,2.30
2023-05-15T02:05:00.111Z,2.67
2023-05-15T02:07:27.478Z,2.90
2023-05-15T02:09:55.557Z,2.60
2023-05-15T02:12:23.505Z,2.47
2023-05-15T02:14:51.086Z,2.20
2023-05-15T02:17:18.504Z,2.65
2023-05-15T02:19:45.733Z,3.03
2023-05-15T02:22:13.052Z,2.63
2023-05-15T02:24:40.191Z,2.80
2023-05-15T02:27:23.859Z,2.83
2023-05-15T02:30:11.791Z,2.78
2023-05-15T02:32:47.207Z,14.70
2023-05-15T02:35:38.403Z,3.92
2023-05-15T02:38:11.492Z,2.55
2023-05-15T02:40:40.072Z,2.47
2023-05-15T02:43:09.615Z,2.35
2023-05-15T02:45:37.125Z,2.03
2023-05-15T02:48:05.541Z,3.00
2023-05-15T02:50:32.733Z,2.35
2023-05-15T02:53:07.551Z,2.00
2023-05-15T02:55:34.989Z,2.13
2023-05-15T02:58:03.048Z,2.77
2023-05-15T03:00:30.512Z,2.50
2023-05-15T03:02:57.595Z,2.15
2023-05-15T03:05:24.833Z,2.67
2023-05-15T03:07:52.550Z,2.50
2023-05-15T03:10:21.172Z,2.57
2023-05-15T03:12:48.289Z,2.70
2023-05-15T03:15:15.987Z,2.28
2023-05-15T03:17:43.128Z,2.55
2023-05-15T03:20:11.126Z,2.42
2023-05-15T03:22:38.376Z,2.53
2023-05-15T03:25:05.868Z,2.45
2023-05-15T03:27:32.926Z,2.20
2023-05-15T03:30:00.361Z,2.80
2023-05-15T03:32:27.437Z,2.67
2023-05-15T03:34:54.607Z,2.60
2023-05-15T03:37:21.671Z,2.53
2023-05-15T03:39:48.754Z,2.72
2023-05-15T03:42:15.788Z,2.35
2023-05-15T03:44:42.978Z,2.60
2023-05-15T03:47:10.004Z,2.73
2023-05-15T03:49:37.061Z,2.70
2023-05-15T03:52:04.218Z,2.53
2023-05-15T03:54:31.295Z,2.63
2023-05-15T03:56:58.365Z,3.03
2023-05-15T03:59:25.485Z,3.20
2023-05-15T04:02:03.623Z,2.72
2023-05-15T04:04:32.616Z,2.92
2023-05-15T04:06:59.951Z,2.65
2023-05-15T04:09:26.974Z,3.05
2023-05-15T04:11:54.104Z,3.30
2023-05-15T04:14:21.174Z,2.97
2023-05-15T04:16:48.440Z,3.25
2023-05-15T04:19:15.720Z,3.40
2023-05-15T04:21:42.845Z,3.90
2023-05-15T04:24:09.889Z,3.77
2023-05-15T04:26:37.156Z,3.05
2023-05-15T04:29:04.884Z,3.25
2023-05-15T04:31:32.326Z,3.47
2023-05-15T04:33:59.496Z,3.85
2023-05-15T04:36:26.561Z,4.50
2023-05-15T04:38:53.607Z,3.75
2023-05-15T04:41:20.979Z,3.33
2023-05-15T04:43:48.032Z,4.20
2023-05-15T04:46:15.159Z,3.50
2023-05-15T04:48:42.403Z,3.50
2023-05-15T04:51:09.467Z,3.90
2023-05-15T04:53:36.512Z,3.28
2023-05-15T04:56:03.873Z,3.70
2023-05-15T04:58:31.073Z,3.75
2023-05-15T05:00:58.133Z,3.53
2023-05-15T05:03:25.372Z,3.95
2023-05-15T05:05:52.434Z,4.18
2023-05-15T05:08:19.610Z,4.38
2023-05-15T05:10:46.648Z,4.78
2023-05-15T05:13:13.704Z,4.70
2023-05-15T05:15:40.850Z,4.30
2023-05-15T05:18:08.574Z,4.07
2023-05-15T05:20:36.555Z,4.30
2023-05-15T05:23:03.599Z,4.35
2023-05-15T05:25:30.768Z,5.13
2023-05-15T05:27:57.844Z,5.10
2023-05-15T05:30:24.905Z,5.20
2023-05-15T05:32:52.034Z,5.20
2023-05-15T05:35:19.153Z,4.90
2023-05-15T05:37:46.208Z,7.13
2023-05-15T05:40:13.330Z,8.98
2023-05-15T05:42:40.898Z,6.03
2023-05-15T05:45:08.272Z,6.25
2023-05-15T05:47:35.489Z,6.20
2023-05-15T05:50:03.135Z,6.80
2023-05-15T05:52:30.907Z,6.03
2023-05-15T05:54:58.082Z,6.35
2023-05-15T05:57:25.265Z,5.80
2023-05-15T05:59:55.217Z,5.68
2023-05-15T06:02:22.371Z,5.77
2023-05-15T06:04:49.803Z,6.13
2023-05-15T06:07:17.120Z,6.97
2023-05-15T06:09:45.910Z,6.00
2023-05-15T06:12:12.954Z,5.75
2023-05-15T06:14:40.027Z,6.30
2023-05-15T06:17:07.108Z,5.80
2023-05-15T06:19:34.261Z,6.20
2023-05-15T06:22:01.321Z,6.35
2023-05-15T06:24:28.461Z,5.90
2023-05-15T06:26:55.631Z,6.17
2023-05-15T06:29:22.759Z,6.95
2023-05-15T06:31:49.899Z,5.70
2023-05-15T06:34:17.015Z,5.55
2023-05-15T06:36:44.939Z,5.93
2023-05-15T06:39:12.274Z,5.77
2023-05-15T06:41:39.401Z,5.45
2023-05-15T06:44:07.093Z,5.30
2023-05-15T06:46:34.213Z,6.15
2023-05-15T06:49:01.333Z,6.63
2023-05-15T06:51:28.430Z,6.30
2023-05-15T06:53:55.579Z,6.10
2023-05-15T06:56:22.756Z,6.68
2023-05-15T06:58:50.150Z,12.18
2023-05-15T07:01:17.420Z,5.65
2023-05-15T07:03:44.647Z,6.10
2023-05-15T07:06:11.717Z,6.57
2023-05-15T07:08:38.749Z,6.50
2023-05-15T07:11:05.815Z,6.40
2023-05-15T07:13:32.926Z,6.15
2023-05-15T07:16:00.031Z,6.00
2023-05-15T07:18:27.140Z,6.00
2023-05-15T07:20:54.242Z,6.50
2023-05-15T07:23:21.292Z,6.85
2023-05-15T07:25:48.535Z,6.45
2023-05-15T07:28:15.670Z,6.07
2023-05-15T07:30:42.724Z,6.75
2023-05-15T07:33:09.804Z,5.63
2023-05-15T07:35:36.948Z,5.78
2023-05-15T07:38:04.089Z,5.38
2023-05-15T07:40:31.467Z,6.00
2023-05-15T07:42:58.844Z,7.07
2023-05-15T07:45:26.157Z,5.95
2023-05-15T07:47:53.503Z,5.97
2023-05-15T07:50:21.029Z,6.50
2023-05-15T07:52:48.186Z,6.80
2023-05-15T07:55:15.320Z,5.28
2023-05-15T07:57:42.468Z,6.50
2023-05-15T08:00:12.839Z,6.07
2023-05-15T08:02:40.644Z,6.38
2023-05-15T08:05:08.168Z,6.07
2023-05-15T08:07:35.534Z,5.80
2023-05-15T08:10:05.967Z,6.63
2023-05-15T08:12:33.913Z,5.63
2023-05-15T08:15:00.981Z,6.18
2023-05-15T08:17:28.177Z,5.60
2023-05-15T08:19:55.587Z,6.97
2023-05-15T08:22:22.687Z,5.63
2023-05-15T08:24:49.769Z,5.88
2023-05-15T08:27:16.908Z,4.82
2023-05-15T08:29:44.011Z,5.83
2023-05-15T08:32:11.101Z,6.05
2023-05-15T08:34:38.834Z,5.97
2023-05-15T08:37:06.772Z,5.00
2023-05-15T08:39:33.858Z,5.80
2023-05-15T08:42:08.301Z,5.40
2023-05-15T08:44:36.410Z,5.45
2023-05-15T08:47:04.633Z,5.45
2023-05-15T08:49:56.484Z,5.60
2023-05-15T08:52:23.752Z,5.85
2023-05-15T08:54:50.891Z,4.70
2023-05-15T08:57:18.328Z,5.30
2023-05-15T08:59:46.261Z,5.43
2023-05-15T09:02:13.388Z,5.43
2023-05-15T09:04:40.547Z,6.07
2023-05-15T09:07:07.846Z,6.80
2023-05-15T09:09:35.550Z,6.30
2023-05-15T09:12:04.253Z,5.97
2023-05-15T09:14:31.387Z,6.78
2023-05-15T09:16:59.421Z,5.97
2023-05-15T09:19:26.853Z,6.53
2023-05-15T09:21:53.914Z,6.55
2023-05-15T09:24:25.381Z,5.90
2023-05-15T09:27:06.610Z,5.35
2023-05-15T09:29:35.600Z,6.55
2023-05-15T09:32:14.184Z,7.03
2023-05-15T09:34:44.234Z,6.10
2023-05-15T09:37:28.932Z,5.55
2023-05-15T09:39:56.211Z,5.43
2023-05-15T09:42:24.536Z,5.05
2023-05-15T09:44:53.443Z,5.20
2023-05-15T09:47:20.730Z,5.78
2023-05-15T09:49:48.007Z,4.95
2023-05-15T09:52:15.943Z,4.82
2023-05-15T09:54:48.747Z,5.28
2023-05-15T09:57:22.209Z,5.97
2023-05-15T09:59:49.559Z,5.13
2023-05-15T10:02:24.987Z,5.32
2023-05-15T10:04:56.933Z,5.85
2023-05-15T10:07:29.036Z,4.95
2023-05-15T10:09:56.189Z,5.53
2023-05-15T10:12:27.220Z,6.03
2023-05-15T10:14:56.335Z,6.45
2023-05-15T10:17:24.158Z,5.38
2023-05-15T10:22:26.433Z,5.77
2023-05-15T10:25:00.948Z,5.60
2023-05-15T10:27:28.333Z,4.95
2023-05-15T10:29:57.047Z,4.65
2023-05-15T10:32:25.395Z,4.65
2023-05-15T10:34:53.751Z,4.13
2023-05-15T10:37:20.968Z,4.35
2023-05-15T10:39:48.205Z,4.18
2023-05-15T10:42:15.870Z,3.75
2023-05-15T10:44:43.062Z,3.75
2023-05-15T10:47:10.420Z,3.73
2023-05-15T10:49:37.540Z,3.67
2023-05-15T10:52:04.880Z,4.70
2023-05-15T10:54:31.957Z,4.13
2023-05-15T10:56:59.044Z,4.40
2023-05-15T10:59:32.029Z,4.10
2023-05-15T11:02:29.759Z,4.57
2023-05-15T11:04:58.753Z,4.60
2023-05-15T11:07:26.221Z,4.65
2023-05-15T11:09:54.309Z,4.07
2023-05-15T11:12:21.946Z,2.87
2023-05-15T11:14:51.889Z,3.80
2023-05-15T11:17:18.982Z,3.45
2023-05-15T11:19:49.032Z,3.15
2023-05-15T11:22:42.518Z,3.00
2023-05-15T11:25:12.088Z,2.97
2023-05-15T11:27:44.146Z,2.67
2023-05-15T11:30:20.801Z,2.90
2023-05-15T11:32:48.056Z,2.88
2023-05-15T11:35:29.551Z,2.97
2023-05-15T11:38:04.993Z,3.00
2023-05-15T11:40:36.500Z,2.47
2023-05-15T11:43:24.779Z,2.67
2023-05-15T11:45:55.993Z,2.47
2023-05-15T11:48:26.006Z,2.30
2023-05-15T11:50:53.980Z,3.00
2023-05-15T11:53:23.070Z,3.30
2023-05-15T11:55:52.471Z,3.08
2023-05-15T11:58:24.805Z,3.05
2023-05-15T12:00:53.460Z,3.22
2023-05-15T12:03:24.396Z,3.00
2023-05-15T12:05:59.146Z,3.13
2023-05-15T12:08:32.545Z,3.20
2023-05-15T12:11:00.592Z,3.70
2023-05-15T12:13:27.728Z,2.90
2023-05-15T12:15:55.435Z,2.80
2023-05-15T12:18:23.168Z,3.03
2023-05-15T12:20:52.665Z,3.08
2023-05-15T12:23:22.329Z,3.00
2023-05-15T12:25:52.887Z,3.45
2023-05-15T12:28:20.034Z,3.03
2023-05-15T12:30:47.545Z,3.08
2023-05-15T12:33:15.159Z,2.97
2023-05-15T12:35:52.424Z,2.83
2023-05-15T12:38:20.537Z,3.55
2023-05-15T12:40:47.661Z,2.93
2023-05-15T12:43:14.975Z,2.65
2023-05-15T12:45:42.135Z,2.65
2023-05-15T12:48:14.450Z,2.63
2023-05-15T12:50:44.528Z,2.20
2023-05-15T12:53:14.768Z,2.27
2023-05-15T12:55:46.462Z,3.20
2023-05-15T12:58:15.983Z,2.28
2023-05-15T13:00:45.993Z,2.60
2023-05-15T13:03:13.845Z,2.33
2023-05-15T13:05:45.623Z,2.70
2023-05-15T13:08:17.798Z,2.78
2023-05-15T13:10:46.017Z,2.95
2023-05-15T13:13:13.563Z,2.50
2023-05-15T13:15:43.290Z,2.58
2023-05-15T13:18:12.178Z,3.10
2023-05-15T13:20:42.308Z,3.28
2023-05-15T13:23:11.527Z,2.90
2023-05-15T13:25:38.794Z,3.13
2023-05-15T13:28:06.630Z,3.60
2023-05-15T13:30:34.753Z,3.37
2023-05-15T13:33:02.688Z,2.92
2023-05-15T13:35:29.796Z,3.22
2023-05-15T13:37:57.188Z,3.78
2023-05-15T13:40:24.521Z,3.45
2023-05-15T13:42:51.777Z,3.33
2023-05-15T13:45:19.090Z,3.83
2023-05-15T13:47:46.164Z,3.65
2023-05-15T13:50:14.451Z,3.35
2023-05-15T13:52:42.697Z,3.70
2023-05-15T13:55:10.370Z,3.50
2023-05-15T13:57:38.654Z,4.03
2023-05-15T14:00:12.592Z,3.83
2023-05-15T14:02:40.519Z,4.15
2023-05-15T14:05:09.846Z,4.10
2023-05-15T14:07:37.385Z,3.60
2023-05-15T14:10:04.949Z,3.67
2023-05-15T14:12:32.898Z,4.30
2023-05-15T14:15:00.724Z,4.70
2023-05-15T14:17:28.153Z,4.10
2023-05-15T14:19:55.404Z,3.77
2023-05-15T14:22:24.850Z,3.78
2023-05-15T14:24:55.151Z,3.53
2023-05-15T14:27:22.335Z,3.95
2023-05-15T14:29:49.734Z,3.67
2023-05-15T14:32:17.385Z,3.70
2023-05-15T14:34:44.621Z,3.30
2023-05-15T14:37:12.045Z,4.10
2023-05-15T14:39:39.263Z,3.60
2023-05-15T14:42:06.928Z,4.00
2023-05-15T14:44:34.699Z,3.97
2023-05-15T14:47:09.958Z,3.75
2023-05-15T14:49:37.721Z,3.88
2023-05-15T14:52:09.589Z,3.47
2023-05-15T14:54:37.512Z,3.10
2023-05-15T14:57:04.683Z,3.50
2023-05-15T14:59:31.911Z,3.60
2023-05-15T15:01:59.015Z,3.50
2023-05-15T15:04:30.589Z,3.90
2023-05-15T15:06:57.761Z,2.90
2023-05-15T15:09:28.335Z,3.20
2023-05-15T15:11:56.161Z,3.78
2023-05-15T15:14:23.214Z,3.40
2023-05-15T15:16:50.531Z,3.10
2023-05-15T15:19:19.956Z,3.65
2023-05-15T15:21:47.884Z,3.20
2023-05-15T15:24:15.520Z,2.90
2023-05-15T15:26:43.023Z,2.95
2023-05-15T15:29:10.052Z,3.42
2023-05-15T15:31:37.144Z,3.80
2023-05-15T15:34:05.696Z,2.90
2023-05-15T15:36:33.151Z,3.78
2023-05-15T15:39:00.306Z,4.55
2023-05-15T15:41:30.709Z,2.83
2023-05-15T15:43:57.867Z,3.10
2023-05-15T15:46:25.020Z,3.10
2023-05-15T15:48:52.265Z,3.10
2023-05-15T15:51:22.245Z,2.95
2023-05-15T15:53:49.293Z,3.15
2023-05-15T15:56:16.396Z,3.05
2023-05-15T15:58:43.482Z,3.23
2023-05-15T16:01:10.854Z,2.90
2023-05-15T16:03:37.957Z,3.03
2023-05-15T16:06:05.374Z,2.80
2023-05-15T16:08:32.428Z,2.90
2023-05-15T16:10:59.512Z,3.27
2023-05-15T16:13:26.962Z,3.10
2023-05-15T16:15:54.224Z,2.92
2023-05-15T16:18:21.459Z,2.78
2023-05-15T16:20:48.578Z,2.65
2023-05-15T16:23:16.295Z,2.90
2023-05-15T16:25:44.671Z,2.40
2023-05-15T16:28:12.188Z,2.70
2023-05-15T16:30:48.791Z,2.78
2023-05-15T16:33:18.026Z,2.60
2023-05-15T16:35:45.767Z,2.60
2023-05-15T16:38:13.828Z,2.60
2023-05-15T16:40:41.286Z,2.40
2023-05-15T16:43:08.625Z,2.70
2023-05-15T16:45:35.801Z,2.50
2023-05-15T16:48:02.950Z,2.27
2023-05-15T16:50:35.852Z,2.42
2023-05-15T16:53:03.636Z,2.55
2023-05-15T16:55:32.555Z,2.70
2023-05-15T16:57:59.748Z,2.35
2023-05-15T17:00:27.026Z,3.03
2023-05-15T17:02:54.846Z,2.80
2023-05-15T17:05:22.058Z,2.40
2023-05-15T17:07:49.165Z,2.40
2023-05-15T17:10:16.339Z,2.50
2023-05-15T17:12:43.541Z,2.20
2023-05-15T17:15:11.167Z,2.50
2023-05-15T17:17:38.334Z,2.45
2023-05-15T17:20:06.211Z,3.63
2023-05-15T17:22:33.301Z,3.05
2023-05-15T17:25:01.222Z,3.10
2023-05-15T17:27:28.275Z,3.20
2023-05-15T17:29:55.421Z,3.20
2023-05-15T17:32:22.807Z,2.88
2023-05-15T17:34:52.704Z,3.20
2023-05-15T17:37:19.835Z,2.70
2023-05-15T17:39:47.094Z,3.35
2023-05-15T17:42:14.193Z,3.08
2023-05-15T17:44:41.374Z,2.70
2023-05-15T17:47:10.253Z,2.97
2023-05-15T17:49:38.615Z,2.80
2023-05-15T17:52:06.452Z,3.50
2023-05-15T17:54:33.828Z,2.50
2023-05-15T17:57:01.333Z,2.90
2023-05-15T17:59:29.328Z,3.40
2023-05-15T18:01:56.836Z,3.17
2023-05-15T18:04:24.160Z,3.00
2023-05-15T18:06:52.183Z,3.10
2023-05-15T18:09:23.222Z,3.58
2023-05-15T18:11:51.163Z,2.70
2023-05-15T18:14:18.230Z,3.10
2023-05-15T18:16:45.434Z,2.78
2023-05-15T18:19:12.758Z,2.80
2023-05-15T18:21:39.951Z,3.20
2023-05-15T18:24:07.122Z,3.28
2023-05-15T18:26:34.203Z,2.67
2023-05-15T18:29:01.338Z,3.00
2023-05-15T18:31:28.652Z,2.70
2023-05-15T18:33:55.818Z,2.70
2023-05-15T18:36:22.881Z,2.65
2023-05-15T18:38:49.969Z,3.43
2023-05-15T18:41:16.999Z,3.05
2023-05-15T18:43:44.093Z,2.70
2023-05-15T18:46:11.282Z,2.88
2023-05-15T18:48:38.300Z,2.80
2023-05-15T18:51:05.399Z,3.23
2023-05-15T18:53:32.468Z,3.10
2023-05-15T18:55:59.529Z,3.42
2023-05-15T18:58:26.698Z,3.60
2023-05-15T19:00:54.043Z,3.22
2023-05-15T19:03:21.191Z,3.23
2023-05-15T19:05:48.326Z,3.20
2023-05-15T19:08:15.431Z,3.55
2023-05-15T19:10:47.722Z,3.42
2023-05-15T19:13:14.784Z,3.70
2023-05-15T19:15:50.354Z,3.53
2023-05-15T19:18:17.768Z,4.20
2023-05-15T19:20:44.923Z,3.13
2023-05-15T19:23:12.816Z,3.38
2023-05-15T19:25:39.866Z,3.60
2023-05-15T19:28:07.073Z,4.03
2023-05-15T19:30:34.118Z,3.42
2023-05-15T19:33:01.212Z,3.22
2023-05-15T19:35:28.264Z,3.33
2023-05-15T19:37:55.376Z,3.85
2023-05-15T19:40:22.504Z,4.30
2023-05-15T19:42:49.578Z,3.28
2023-05-15T19:45:16.707Z,4.10
2023-05-15T19:47:44.010Z,4.05
2023-05-15T19:50:11.123Z,3.60
2023-05-15T19:52:38.211Z,3.57
2023-05-15T19:55:05.735Z,4.07
2023-05-15T19:57:32.766Z,3.65
2023-05-15T19:59:59.895Z,3.53
2023-05-15T20:02:27.081Z,3.80
2023-05-15T20:04:54.181Z,3.63
2023-05-15T20:07:21.295Z,4.15
2023-05-15T20:09:48.332Z,4.32
2023-05-15T20:12:15.374Z,3.92
2023-05-15T20:14:42.751Z,4.10
2023-05-15T20:17:09.819Z,4.00
2023-05-15T20:19:37.168Z,3.85
2023-05-15T20:22:04.549Z,3.95
2023-05-15T20:24:32.279Z,4.13
2023-05-15T20:26:59.326Z,3.95
2023-05-15T20:29:26.737Z,4.57
2023-05-15T20:31:53.931Z,4.43
2023-05-15T20:34:21.771Z,4.10
2023-05-15T20:36:52.623Z,4.97
2023-05-15T20:39:20.095Z,3.95
2023-05-15T20:41:47.172Z,4.60
2023-05-15T20:44:14.252Z,4.22
2023-05-15T20:46:42.616Z,4.07
2023-05-15T20:49:09.686Z,4.25
2023-05-15T20:51:36.757Z,4.40
2023-05-15T20:54:03.907Z,3.77
2023-05-15T20:56:30.951Z,3.72
2023-05-15T20:58:59.810Z,4.40
2023-05-15T21:01:27.181Z,4.05
2023-05-15T21:03:54.253Z,3.83
2023-05-15T21:06:21.469Z,4.40
2023-05-15T21:08:48.517Z,3.75
2023-05-15T21:11:15.771Z,4.00
2023-05-15T21:13:42.893Z,4.07
2023-05-15T21:16:09.944Z,4.18
2023-05-15T21:18:38.893Z,4.20
2023-05-15T21:21:08.866Z,4.20
2023-05-15T21:23:36.661Z,4.05
2023-05-15T21:26:04.073Z,4.20
2023-05-15T21:28:31.195Z,3.97
2023-05-15T21:30:58.368Z,4.17
2023-05-15T21:33:25.590Z,3.63
2023-05-15T21:35:52.980Z,4.28
2023-05-15T21:38:20.031Z,4.40
2023-05-15T21:40:47.107Z,4.47
2023-05-15T21:43:14.171Z,3.80
2023-05-15T21:45:41.216Z,4.60
2023-05-15T21:48:08.378Z,3.97
2023-05-15T21:50:35.718Z,4.40
2023-05-15T21:53:02.755Z,4.00
2023-05-15T21:55:29.803Z,4.93
2023-05-15T21:57:56.883Z,4.45
2023-05-15T22:00:24.124Z,4.40
2023-05-15T22:02:51.459Z,4.40
2023-05-15T22:05:18.652Z,4.88
2023-05-15T22:07:45.719Z,4.77
2023-05-15T22:10:16.636Z,4.68
2023-05-15T22:12:44.316Z,4.72
2023-05-15T22:15:12.417Z,4.82
2023-05-15T22:17:39.513Z,4.13
2023-05-15T22:20:08.326Z,4.93
2023-05-15T22:22:35.666Z,4.30
2023-05-15T22:25:02.985Z,4.88
2023-05-15T22:27:30.155Z,4.63
2023-05-15T22:29:57.340Z,4.95
2023-05-15T22:32:24.607Z,4.93
2023-05-15T22:34:51.900Z,4.82
2023-05-15T22:37:19.118Z,4.45
2023-05-15T22:39:46.213Z,5.43
2023-05-15T22:42:13.307Z,4.80
2023-05-15T22:44:40.384Z,5.00
2023-05-15T22:47:07.714Z,4.80
2023-05-15T22:49:34.831Z,5.07
2023-05-15T22:52:02.115Z,4.88
2023-05-15T22:54:29.199Z,4.78
2023-05-15T22:56:56.338Z,4.87
2023-05-15T22:59:23.498Z,4.88
2023-05-15T23:01:50.781Z,4.57
2023-05-15T23:04:18.216Z,5.50
2023-05-15T23:06:45.783Z,5.40
2023-05-15T23:09:12.882Z,5.37
2023-05-15T23:11:39.910Z,5.28
2023-05-15T23:14:08.376Z,5.47
2023-05-15T23:16:35.900Z,5.10
2023-05-15T23:19:03.126Z,5.72
2023-05-15T23:21:30.448Z,4.93
2023-05-15T23:23:57.486Z,5.22
2023-05-15T23:26:24.566Z,4.43
2023-05-15T23:28:51.724Z,4.78
2023-05-15T23:31:18.833Z,5.03
2023-05-15T23:33:45.985Z,5.50
2023-05-15T23:36:13.094Z,4.97
2023-05-15T23:38:40.374Z,5.13
2023-05-15T23:41:07.847Z,4.93
2023-05-15T23:43:35.021Z,5.75
2023-05-15T23:46:02.906Z,5.50
2023-05-15T23:48:31.656Z,4.90
2023-05-15T23:50:58.818Z,5.07
2023-05-15T23:53:25.942Z,5.25
2023-05-15T23:55:53.104Z,5.30
2023-05-15T23:58:20.221Z,5.93
